createdAt,value
2018-03-19T00:01:33.849Z,0.50
2018-03-19T00:04:01.423Z,0.50
2018-03-19T00:06:29.024Z,0.50
2018-03-19T00:08:56.590Z,0.50
2018-03-19T00:11:24.185Z,0.40
2018-03-19T00:13:51.795Z,0.40
2018-03-19T00:16:20.132Z,0.40
2018-03-19T00:18:48.489Z,0.50
2018-03-19T00:21:16.066Z,0.50
2018-03-19T00:23:43.653Z,0.50
2018-03-19T00:26:11.245Z,0.50
2018-03-19T00:28:38.843Z,0.50
2018-03-19T00:31:06.402Z,0.50
2018-03-19T00:33:34.779Z,0.50
2018-03-19T00:36:02.356Z,0.50
2018-03-19T00:38:29.927Z,0.50
2018-03-19T00:40:57.506Z,0.40
2018-03-19T00:43:25.837Z,0.50
2018-03-19T00:45:53.431Z,0.50
2018-03-19T00:48:21.010Z,0.40
2018-03-19T00:50:51.287Z,0.40
2018-03-19T00:53:18.877Z,0.40
2018-03-19T00:55:47.240Z,0.40
2018-03-19T00:58:14.818Z,0.30
2018-03-19T01:00:42.410Z,0.30
2018-03-19T01:03:09.999Z,0.30
2018-03-19T01:05:38.344Z,0.30
2018-03-19T01:08:05.965Z,0.30
2018-03-19T01:10:33.539Z,0.30
2018-03-19T01:13:01.897Z,0.40
2018-03-19T01:15:29.507Z,0.40
2018-03-19T01:17:57.098Z,0.40
2018-03-19T01:20:25.440Z,0.40
2018-03-19T01:22:53.020Z,0.40
2018-03-19T01:25:20.622Z,0.30
2018-03-19T01:27:48.186Z,0.40
2018-03-19T01:30:15.788Z,0.40
2018-03-19T01:32:43.362Z,0.50
2018-03-19T01:35:10.966Z,0.40
2018-03-19T01:37:38.543Z,0.40
2018-03-19T01:40:06.899Z,0.40
2018-03-19T01:42:34.499Z,0.40
2018-03-19T01:45:02.084Z,0.30
2018-03-19T01:47:29.675Z,0.40
2018-03-19T01:49:57.243Z,0.30
2018-03-19T01:52:36.826Z,0.30
2018-03-19T01:55:04.404Z,0.30
2018-03-19T01:57:31.988Z,0.30
2018-03-19T01:59:59.580Z,0.30
2018-03-19T02:02:27.925Z,0.30
2018-03-19T02:04:55.522Z,0.30
2018-03-19T02:07:23.882Z,0.30
2018-03-19T02:09:51.474Z,0.30
2018-03-19T02:12:19.082Z,0.40
2018-03-19T02:14:46.661Z,0.30
2018-03-19T02:17:14.222Z,0.30
2018-03-19T02:19:41.820Z,0.30
2018-03-19T02:22:09.400Z,0.30
2018-03-19T02:24:36.998Z,0.20
2018-03-19T02:27:04.575Z,0.10
2018-03-19T02:29:32.940Z,0.10
2018-03-19T02:32:00.520Z,0.10
2018-03-19T02:34:28.896Z,0.10
2018-03-19T02:36:57.226Z,0.00
2018-03-19T02:39:24.825Z,0.00
2018-03-19T02:41:54.189Z,0.00
2018-03-19T02:44:21.782Z,0.00
2018-03-19T02:46:49.407Z,0.00
2018-03-19T02:49:16.982Z,-0.20
2018-03-19T02:51:44.574Z,-0.20
2018-03-19T02:54:12.907Z,-0.10
2018-03-19T02:56:41.262Z,-0.20
2018-03-19T02:59:08.882Z,-0.20
2018-03-19T03:01:36.460Z,-0.20
2018-03-19T03:04:04.811Z,-0.30
2018-03-19T03:06:33.211Z,-0.30
2018-03-19T03:09:01.537Z,-0.20
2018-03-19T03:11:29.106Z,-0.20
2018-03-19T03:13:56.685Z,-0.30
2018-03-19T03:16:24.262Z,-0.20
2018-03-19T03:18:51.855Z,-0.20
2018-03-19T03:21:19.447Z,-0.20
2018-03-19T03:23:47.038Z,-0.20
2018-03-19T03:26:14.615Z,-0.30
2018-03-19T03:28:42.972Z,-0.20
2018-03-19T03:31:10.589Z,-0.30
2018-03-19T03:33:38.194Z,-0.50
2018-03-19T03:36:05.783Z,-0.50
2018-03-19T03:38:33.368Z,-0.40
2018-03-19T03:41:00.967Z,-0.40
2018-03-19T03:43:28.550Z,-0.40
2018-03-19T03:45:58.940Z,-0.40
2018-03-19T03:48:26.618Z,-0.40
2018-03-19T03:50:55.066Z,-0.30
2018-03-19T03:53:22.745Z,-0.30
2018-03-19T03:55:50.377Z,-0.30
2018-03-19T03:58:17.970Z,-0.40
2018-03-19T04:00:45.541Z,-0.40
2018-03-19T04:03:13.131Z,-0.30
2018-03-19T04:05:40.718Z,-0.40
2018-03-19T04:08:08.311Z,-0.30
2018-03-19T04:10:35.899Z,-0.40
2018-03-19T04:13:04.280Z,-0.40
2018-03-19T04:15:32.605Z,-0.40
2018-03-19T04:18:00.187Z,-0.40
2018-03-19T04:20:27.793Z,-0.40
2018-03-19T04:22:55.388Z,-0.50
2018-03-19T04:25:22.971Z,-0.50
2018-03-19T04:27:50.539Z,-0.40
2018-03-19T04:30:18.135Z,-0.40
2018-03-19T04:32:45.749Z,-0.40
2018-03-19T04:35:13.360Z,-0.40
2018-03-19T04:37:40.975Z,-0.40
2018-03-19T04:40:08.571Z,-0.40
2018-03-19T04:42:36.935Z,-0.40
2018-03-19T04:45:05.300Z,-0.40
2018-03-19T04:47:52.621Z,-0.40
2018-03-19T04:50:20.211Z,-0.40
2018-03-19T04:52:48.553Z,-0.40
2018-03-19T04:55:16.167Z,-0.40
2018-03-19T04:57:43.750Z,-0.40
2018-03-19T05:00:11.365Z,-0.40
2018-03-19T05:02:39.697Z,-0.40
2018-03-19T05:05:07.296Z,-0.40
2018-03-19T05:07:35.650Z,-0.40
2018-03-19T05:10:03.236Z,-0.40
2018-03-19T05:12:31.599Z,-0.30
2018-03-19T05:14:59.176Z,-0.40
2018-03-19T05:17:27.532Z,-0.40
2018-03-19T05:19:55.115Z,-0.40
2018-03-19T05:22:23.491Z,-0.40
2018-03-19T05:24:51.839Z,-0.40
2018-03-19T05:27:19.428Z,-0.40
2018-03-19T05:29:47.800Z,-0.40
2018-03-19T05:32:16.413Z,-0.40
2018-03-19T05:34:50.860Z,-0.40
2018-03-19T05:37:18.434Z,-0.40
2018-03-19T05:39:46.060Z,-0.40
2018-03-19T05:42:13.636Z,-0.30
2018-03-19T05:44:41.215Z,-0.30
2018-03-19T05:47:08.824Z,-0.30
2018-03-19T05:49:36.430Z,-0.20
2018-03-19T05:52:04.018Z,-0.20
2018-03-19T05:54:39.544Z,-0.10
2018-03-19T05:57:07.123Z,-0.30
2018-03-19T05:59:34.699Z,-0.30
2018-03-19T06:02:03.071Z,-0.30
2018-03-19T06:04:30.654Z,-0.30
2018-03-19T06:06:58.273Z,-0.20
2018-03-19T06:09:25.863Z,-0.20
2018-03-19T06:11:54.251Z,-0.10
2018-03-19T06:14:22.614Z,-0.10
2018-03-19T06:16:50.951Z,-0.20
2018-03-19T06:19:42.408Z,-0.20
2018-03-19T06:22:10.771Z,-0.20
2018-03-19T06:24:38.406Z,-0.20
2018-03-19T06:27:05.984Z,-0.10
2018-03-19T06:29:33.572Z,0.00
2018-03-19T06:32:01.900Z,0.10
2018-03-19T06:34:29.488Z,0.10
2018-03-19T06:36:57.066Z,0.20
2018-03-19T06:39:25.398Z,0.30
2018-03-19T06:41:53.001Z,0.30
2018-03-19T06:44:21.349Z,0.30
2018-03-19T06:46:48.953Z,0.30
2018-03-19T06:49:17.290Z,0.50
2018-03-19T06:51:44.859Z,0.50
2018-03-19T06:54:12.467Z,0.60
2018-03-19T06:56:40.064Z,0.60
2018-03-19T06:59:07.664Z,0.70
2018-03-19T07:01:36.015Z,0.90
2018-03-19T07:04:03.603Z,0.90
2018-03-19T07:06:31.978Z,1.00
2018-03-19T07:09:00.330Z,1.10
2018-03-19T07:11:38.205Z,1.10
2018-03-19T07:14:05.765Z,1.20
2018-03-19T07:16:33.384Z,1.30
2018-03-19T07:19:01.728Z,1.40
2018-03-19T07:21:29.319Z,1.30
2018-03-19T07:23:57.672Z,1.60
2018-03-19T07:26:25.268Z,1.60
2018-03-19T07:28:53.593Z,1.80
2018-03-19T07:31:21.201Z,1.70
2018-03-19T07:33:49.592Z,1.80
2018-03-19T07:36:17.917Z,1.90
2018-03-19T07:38:45.495Z,1.90
2018-03-19T07:41:13.072Z,1.90
2018-03-19T07:43:41.428Z,2.00
2018-03-19T07:46:09.026Z,2.00
2018-03-19T07:51:31.647Z,2.20
2018-03-19T07:53:59.265Z,2.30
2018-03-19T07:56:26.834Z,2.30
2018-03-19T07:58:54.414Z,2.50
2018-03-19T08:01:22.003Z,2.50
2018-03-19T08:03:49.575Z,2.50
2018-03-19T08:06:17.176Z,2.50
2018-03-19T08:08:44.747Z,2.40
2018-03-19T08:11:12.339Z,2.50
2018-03-19T08:13:39.916Z,2.70
2018-03-19T08:16:08.261Z,2.90
2018-03-19T08:18:35.876Z,2.90
2018-03-19T08:21:03.468Z,2.80
2018-03-19T08:23:31.044Z,2.70
2018-03-19T08:25:58.629Z,2.70
2018-03-19T08:28:26.194Z,2.80
2018-03-19T08:30:54.537Z,3.00
2018-03-19T08:33:22.135Z,3.00
2018-03-19T08:35:50.501Z,3.10
2018-03-19T08:38:18.075Z,3.10
2018-03-19T08:40:46.459Z,3.00
2018-03-19T08:43:14.791Z,3.10
2018-03-19T08:45:43.139Z,2.80
2018-03-19T08:48:10.733Z,2.70
2018-03-19T08:50:38.295Z,2.40
2018-03-19T08:53:05.875Z,2.70
2018-03-19T08:55:33.466Z,2.90
2018-03-19T08:58:01.801Z,3.20
2018-03-19T09:00:29.386Z,3.20
2018-03-19T09:02:57.710Z,2.90
2018-03-19T09:05:25.296Z,2.90
2018-03-19T09:07:53.662Z,3.50
2018-03-19T09:10:22.037Z,3.60
2018-03-19T09:12:49.607Z,3.60
2018-03-19T09:15:17.201Z,3.80
2018-03-19T09:17:45.544Z,4.30
2018-03-19T09:20:13.147Z,4.20
2018-03-19T09:22:41.470Z,4.60
2018-03-19T09:25:09.092Z,4.50
2018-03-19T09:27:36.659Z,4.50
2018-03-19T09:30:04.213Z,4.70
2018-03-19T09:32:31.799Z,4.70
2018-03-19T09:35:02.772Z,4.80
2018-03-19T09:37:30.368Z,4.50
2018-03-19T09:39:58.694Z,4.60
2018-03-19T09:42:26.266Z,4.50
2018-03-19T09:44:53.859Z,4.60
2018-03-19T09:47:22.210Z,4.40
2018-03-19T09:49:49.800Z,4.40
2018-03-19T09:52:18.138Z,4.60
2018-03-19T09:54:45.728Z,4.60
2018-03-19T09:57:14.054Z,4.60
2018-03-19T09:59:41.633Z,4.60
2018-03-19T10:02:09.218Z,4.60
2018-03-19T10:04:36.783Z,4.40
2018-03-19T10:07:05.147Z,4.30
2018-03-19T10:09:32.747Z,4.30
2018-03-19T10:12:00.348Z,4.30
2018-03-19T10:14:27.919Z,4.30
2018-03-19T10:16:55.498Z,4.60
2018-03-19T10:19:23.059Z,4.70
2018-03-19T10:22:01.115Z,4.60
2018-03-19T10:24:28.698Z,4.70
2018-03-19T10:26:56.268Z,4.70
2018-03-19T10:29:23.876Z,4.80
2018-03-19T10:31:51.479Z,5.00
2018-03-19T10:34:19.587Z,4.70
2018-03-19T10:36:47.916Z,5.00
2018-03-19T10:39:15.506Z,4.90
2018-03-19T10:41:43.075Z,5.00
2018-03-19T10:44:10.654Z,5.00
2018-03-19T10:46:38.982Z,5.00
2018-03-19T10:49:06.570Z,5.00
2018-03-19T10:51:34.134Z,4.80
2018-03-19T10:54:01.701Z,4.80
2018-03-19T10:56:30.057Z,5.20
2018-03-19T10:58:57.651Z,5.20
2018-03-19T11:01:30.874Z,5.10
2018-03-19T11:04:01.275Z,5.20
2018-03-19T11:06:36.948Z,5.30
2018-03-19T11:09:10.609Z,5.40
2018-03-19T11:11:45.046Z,5.30
2018-03-19T11:14:12.630Z,5.20
2018-03-19T11:16:40.218Z,5.40
2018-03-19T11:19:07.801Z,5.40
2018-03-19T11:21:35.377Z,5.60
2018-03-19T11:24:03.748Z,6.10
2018-03-19T11:26:32.095Z,6.00
2018-03-19T11:28:59.680Z,6.00
2018-03-19T11:31:28.028Z,6.10
2018-03-19T11:33:55.616Z,6.10
2018-03-19T11:36:23.178Z,6.10
2018-03-19T11:38:51.562Z,6.50
2018-03-19T11:41:19.905Z,6.60
2018-03-19T11:43:47.464Z,6.60
2018-03-19T11:46:15.066Z,6.50
2018-03-19T11:48:43.473Z,6.70
2018-03-19T11:51:11.817Z,7.00
2018-03-19T11:53:40.164Z,6.80
2018-03-19T11:56:07.746Z,6.80
2018-03-19T11:58:41.579Z,7.00
2018-03-19T12:01:09.180Z,6.80
2018-03-19T12:03:36.750Z,6.70
2018-03-19T12:06:04.306Z,6.90
2018-03-19T12:08:31.882Z,6.80
2018-03-19T12:10:59.457Z,6.90
2018-03-19T12:13:27.806Z,6.70
2018-03-19T12:15:55.407Z,6.80
2018-03-19T12:18:23.767Z,6.50
2018-03-19T12:20:52.150Z,6.60
2018-03-19T12:23:19.733Z,6.60
2018-03-19T12:25:47.298Z,6.40
2018-03-19T12:28:14.867Z,6.30
2018-03-19T12:30:42.464Z,6.50
2018-03-19T12:33:10.014Z,6.30
2018-03-19T12:35:37.607Z,6.00
2018-03-19T12:38:05.952Z,6.00
2018-03-19T12:40:34.319Z,5.50
2018-03-19T12:43:01.896Z,5.50
2018-03-19T12:45:29.461Z,5.40
2018-03-19T12:47:57.050Z,5.50
2018-03-19T12:50:25.397Z,5.50
2018-03-19T12:52:53.004Z,5.50
2018-03-19T12:55:20.580Z,5.60
2018-03-19T12:57:48.184Z,5.40
2018-03-19T13:00:15.755Z,5.20
2018-03-19T13:02:43.353Z,5.10
2018-03-19T13:05:10.917Z,5.10
2018-03-19T13:07:38.548Z,5.20
2018-03-19T13:10:06.110Z,5.20
2018-03-19T13:12:34.442Z,5.10
2018-03-19T13:15:02.036Z,5.10
2018-03-19T13:17:29.611Z,5.10
2018-03-19T13:19:59.897Z,5.10
2018-03-19T13:22:27.455Z,5.00
2018-03-19T13:24:55.058Z,5.20
2018-03-19T13:27:23.390Z,5.00
2018-03-19T13:29:50.954Z,5.00
2018-03-19T13:32:19.305Z,5.30
2018-03-19T13:34:46.865Z,5.30
2018-03-19T13:37:15.471Z,5.20
2018-03-19T13:39:43.828Z,5.00
2018-03-19T13:42:11.419Z,5.00
2018-03-19T13:44:38.982Z,4.80
2018-03-19T13:47:06.575Z,4.70
2018-03-19T13:49:34.915Z,4.60
2018-03-19T13:52:02.478Z,4.50
2018-03-19T13:54:30.066Z,4.60
2018-03-19T13:56:58.382Z,4.30
2018-03-19T13:59:25.998Z,4.30
2018-03-19T14:01:53.571Z,4.10
2018-03-19T14:04:22.722Z,4.00
2018-03-19T14:06:50.311Z,4.00
2018-03-19T14:09:17.905Z,4.00
2018-03-19T14:11:45.494Z,3.90
2018-03-19T14:14:13.090Z,4.00
2018-03-19T14:16:45.307Z,3.90
2018-03-19T14:19:12.886Z,3.80
2018-03-19T14:21:40.469Z,3.90
2018-03-19T14:24:08.032Z,4.10
2018-03-19T14:26:35.613Z,3.80
2018-03-19T14:29:03.940Z,3.90
2018-03-19T14:31:31.517Z,3.90
2018-03-19T14:33:59.079Z,3.90
2018-03-19T14:36:26.680Z,3.90
2018-03-19T14:38:54.256Z,3.90
2018-03-19T14:41:21.888Z,3.80
2018-03-19T14:43:50.228Z,3.80
2018-03-19T14:46:17.835Z,3.70
2018-03-19T14:48:45.407Z,3.70
2018-03-19T14:51:12.976Z,3.70
2018-03-19T14:53:40.580Z,3.60
2018-03-19T14:56:08.170Z,3.40
2018-03-19T14:58:36.507Z,3.30
2018-03-19T15:01:04.111Z,3.20
2018-03-19T15:03:36.317Z,3.20
2018-03-19T15:06:03.902Z,3.20
2018-03-19T15:08:31.472Z,3.20
2018-03-19T15:11:00.038Z,3.10
2018-03-19T15:13:27.607Z,3.10
2018-03-19T15:15:55.201Z,3.10
2018-03-19T15:18:44.284Z,3.00
2018-03-19T15:21:15.163Z,3.00
2018-03-19T15:23:43.729Z,2.80
2018-03-19T15:26:11.330Z,2.80
2018-03-19T15:28:38.895Z,2.60
2018-03-19T15:31:08.268Z,2.70
2018-03-19T15:33:35.888Z,2.70
2018-03-19T15:36:08.724Z,2.90
2018-03-19T15:38:36.359Z,2.80
2018-03-19T15:41:04.735Z,2.70
2018-03-19T15:43:32.345Z,2.70
2018-03-19T15:46:00.689Z,2.90
2018-03-19T15:48:28.271Z,2.90
2018-03-19T15:50:55.849Z,2.90
2018-03-19T15:53:24.192Z,2.80
2018-03-19T15:56:12.739Z,2.80
2018-03-19T15:58:40.379Z,2.80
2018-03-19T16:01:07.938Z,2.90
2018-03-19T16:03:35.528Z,2.90
2018-03-19T16:06:05.131Z,2.90
2018-03-19T16:08:32.702Z,2.90
2018-03-19T16:11:00.284Z,2.90
2018-03-19T16:13:29.663Z,2.90
2018-03-19T16:15:57.232Z,2.90
2018-03-19T16:18:24.821Z,2.90
2018-03-19T16:21:09.233Z,2.90
2018-03-19T16:23:36.862Z,2.90
2018-03-19T16:26:04.550Z,2.90
2018-03-19T16:28:33.113Z,3.00
2018-03-19T16:31:00.703Z,2.90
2018-03-19T16:33:28.286Z,3.00
2018-03-19T16:35:56.714Z,2.70
2018-03-19T16:38:24.296Z,2.80
2018-03-19T16:40:51.897Z,2.70
2018-03-19T16:43:19.492Z,2.50
2018-03-19T16:45:47.079Z,2.50
2018-03-19T16:48:14.644Z,2.50
2018-03-19T16:50:42.242Z,2.40
2018-03-19T16:53:09.846Z,2.30
2018-03-19T16:55:37.415Z,2.30
2018-03-19T16:58:06.094Z,2.30
2018-03-19T17:00:34.714Z,2.30
2018-03-19T17:03:03.126Z,2.20
2018-03-19T17:05:30.695Z,2.20
2018-03-19T17:07:58.293Z,2.10
2018-03-19T17:10:25.863Z,2.10
2018-03-19T17:13:03.632Z,2.10
2018-03-19T17:15:31.232Z,2.10
2018-03-19T17:17:59.579Z,2.00
2018-03-19T17:20:27.165Z,2.00
2018-03-19T17:22:54.749Z,1.90
2018-03-19T17:25:22.343Z,1.90
2018-03-19T17:27:49.938Z,1.90
2018-03-19T17:30:17.549Z,1.80
2018-03-19T17:32:45.128Z,1.90
2018-03-19T17:35:12.694Z,1.90
2018-03-19T17:37:44.568Z,1.90
2018-03-19T17:40:12.132Z,1.90
2018-03-19T17:42:39.698Z,1.80
2018-03-19T17:45:07.286Z,1.70
2018-03-19T17:47:35.648Z,1.80
2018-03-19T17:50:03.906Z,1.80
2018-03-19T17:52:32.502Z,1.80
2018-03-19T17:55:00.072Z,1.90
2018-03-19T17:57:28.399Z,1.80
2018-03-19T17:59:56.992Z,1.80
2018-03-19T18:02:25.361Z,1.90
2018-03-19T18:04:52.954Z,1.80
2018-03-19T18:07:20.518Z,1.90
2018-03-19T18:09:48.117Z,1.80
2018-03-19T18:12:15.700Z,1.80
2018-03-19T18:14:43.300Z,1.80
2018-03-19T18:17:10.878Z,1.80
2018-03-19T18:19:39.216Z,1.80
2018-03-19T18:22:06.811Z,1.80
2018-03-19T18:24:35.132Z,1.70
2018-03-19T18:27:02.735Z,1.70
2018-03-19T18:29:30.290Z,1.70
2018-03-19T18:31:57.840Z,1.70
2018-03-19T18:34:25.482Z,1.80
2018-03-19T18:36:53.032Z,1.80
2018-03-19T18:39:20.623Z,1.80
2018-03-19T18:41:48.185Z,1.80
2018-03-19T18:44:15.758Z,1.80
2018-03-19T18:46:43.350Z,1.80
2018-03-19T18:52:13.591Z,1.90
2018-03-19T18:54:42.125Z,1.80
2018-03-19T18:57:09.692Z,1.80
2018-03-19T18:59:37.273Z,1.80
2018-03-19T19:02:05.636Z,1.90
2018-03-19T19:04:37.992Z,1.90
2018-03-19T19:07:05.592Z,1.90
2018-03-19T19:09:33.157Z,1.90
2018-03-19T19:12:00.752Z,1.90
2018-03-19T19:14:28.319Z,1.80
2018-03-19T19:16:55.904Z,1.80
2018-03-19T19:19:23.490Z,1.80
2018-03-19T19:21:51.836Z,1.70
2018-03-19T19:24:19.461Z,1.70
2018-03-19T19:26:47.814Z,1.60
2018-03-19T19:29:15.420Z,1.60
2018-03-19T19:31:43.040Z,1.70
2018-03-19T19:34:10.683Z,1.70
2018-03-19T19:36:39.004Z,1.60
2018-03-19T19:39:06.570Z,1.60
2018-03-19T19:41:34.148Z,1.70
2018-03-19T19:44:01.740Z,1.70
2018-03-19T19:46:30.104Z,1.80
2018-03-19T19:48:57.705Z,1.80
2018-03-19T19:51:25.312Z,1.70
2018-03-19T19:53:52.896Z,1.70
2018-03-19T19:56:21.273Z,1.70
2018-03-19T19:58:49.641Z,1.60
2018-03-19T20:01:17.211Z,1.70
2018-03-19T20:03:45.575Z,1.70
2018-03-19T20:06:13.164Z,1.60
2018-03-19T20:08:40.760Z,1.70
2018-03-19T20:11:08.317Z,1.70
2018-03-19T20:13:35.915Z,1.70
2018-03-19T20:16:03.492Z,1.60
2018-03-19T20:18:31.867Z,1.70
2018-03-19T20:21:00.207Z,1.70
2018-03-19T20:23:33.121Z,1.70
2018-03-19T20:26:00.707Z,1.70
2018-03-19T20:28:29.040Z,1.70
2018-03-19T20:30:56.638Z,1.70
2018-03-19T20:33:24.999Z,1.70
2018-03-19T20:35:52.567Z,1.60
2018-03-19T20:38:20.928Z,1.70
2018-03-19T20:40:48.500Z,1.70
2018-03-19T20:43:16.087Z,1.70
2018-03-19T20:45:43.661Z,1.70
2018-03-19T20:48:11.267Z,1.70
2018-03-19T20:50:55.539Z,1.80
2018-03-19T20:53:23.884Z,1.70
2018-03-19T20:55:51.480Z,1.80
2018-03-19T20:58:19.807Z,1.80
2018-03-19T21:00:47.403Z,1.80
2018-03-19T21:03:15.949Z,1.80
2018-03-19T21:05:44.312Z,1.80
2018-03-19T21:08:11.911Z,1.80
2018-03-19T21:10:39.548Z,1.80
2018-03-19T21:13:07.132Z,1.90
2018-03-19T21:15:34.711Z,1.80
2018-03-19T21:18:02.295Z,1.70
2018-03-19T21:20:30.828Z,1.70
2018-03-19T21:22:58.464Z,1.70
2018-03-19T21:25:26.016Z,1.70
2018-03-19T21:27:53.616Z,1.70
2018-03-19T21:30:21.196Z,1.70
2018-03-19T21:32:48.792Z,1.80
2018-03-19T21:35:16.373Z,1.70
2018-03-19T21:37:43.934Z,1.60
2018-03-19T21:40:11.533Z,1.60
2018-03-19T21:42:39.906Z,1.60
2018-03-19T21:50:54.405Z,1.60
2018-03-19T21:53:21.984Z,1.50
2018-03-19T21:55:49.559Z,1.50
2018-03-19T21:58:17.156Z,1.50
2018-03-19T22:00:44.752Z,1.50
2018-03-19T22:03:13.200Z,1.50
2018-03-19T22:05:40.784Z,1.50
2018-03-19T22:08:09.188Z,1.60
2018-03-19T22:10:36.787Z,1.50
2018-03-19T22:13:04.367Z,1.60
2018-03-19T22:15:31.961Z,1.60
2018-03-19T22:18:00.302Z,1.50
2018-03-19T22:20:28.901Z,1.50
2018-03-19T22:22:56.498Z,1.40
2018-03-19T22:25:24.066Z,1.40
2018-03-19T22:27:51.619Z,1.40
2018-03-19T22:30:19.211Z,1.30
2018-03-19T22:32:46.788Z,1.20
2018-03-19T22:35:14.359Z,1.30
2018-03-19T22:37:47.010Z,1.30
2018-03-19T22:40:14.627Z,1.30
2018-03-19T22:42:42.969Z,1.20
2018-03-19T22:45:10.543Z,1.20
2018-03-19T22:47:38.122Z,1.30
2018-03-19T22:50:06.466Z,1.30
2018-03-19T22:52:34.119Z,1.30
2018-03-19T22:55:02.524Z,1.20
2018-03-19T22:57:30.083Z,1.20
2018-03-19T22:59:57.686Z,1.10
2018-03-19T23:02:30.380Z,1.20
2018-03-19T23:08:00.770Z,1.00
2018-03-19T23:10:29.115Z,1.00
2018-03-19T23:12:56.731Z,1.00
2018-03-19T23:15:37.555Z,0.90
2018-03-19T23:18:05.155Z,0.80
2018-03-19T23:20:33.508Z,0.60
2018-03-19T23:23:01.164Z,0.50
2018-03-19T23:25:28.733Z,0.60
2018-03-19T23:27:56.339Z,0.40
2018-03-19T23:30:23.971Z,0.40
2018-03-19T23:32:52.320Z,0.20
2018-03-19T23:35:19.903Z,0.20
2018-03-19T23:37:48.271Z,0.10
2018-03-19T23:40:15.871Z,0.10
2018-03-19T23:42:43.470Z,-0.10
2018-03-19T23:45:11.086Z,-0.10
2018-03-19T23:47:38.655Z,-0.20
2018-03-19T23:50:06.243Z,-0.30
2018-03-19T23:55:28.918Z,-0.30
2018-03-19T23:57:56.529Z,-0.40
